sensor_id;sensor_type;location;lat;lon;timestamp;P1;durP1;ratioP1;P2;durP2;ratioP2
72369;SDS011;60343;-32.030;115.880;2023-08-01T00:00:51;3.38;;;0.90;;
72369;SDS011;60343;-32.030;115.880;2023-08-01T00:03:32;3.47;;;1.33;;
72369;SDS011;60343;-32.030;115.880;2023-08-01T00:06:06;3.70;;;1.70;;
72369;SDS011;60343;-32.030;115.880;2023-08-01T00:08:41;5.35;;;1.33;;
72369;SDS011;60343;-32.030;115.880;2023-08-01T00:11:15;4.53;;;1.50;;
72369;SDS011;60343;-32.030;115.880;2023-08-01T00:13:50;5.10;;;2.00;;
72369;SDS011;60343;-32.030;115.880;2023-08-01T00:16:24;4.30;;;1.77;;
72369;SDS011;60343;-32.030;115.880;2023-08-01T00:19:04;5.05;;;2.13;;
72369;SDS011;60343;-32.030;115.880;2023-08-01T00:21:39;7.38;;;1.92;;
72369;SDS011;60343;-32.030;115.880;2023-08-01T00:24:13;3.95;;;1.60;;
72369;SDS011;60343;-32.030;115.880;2023-08-01T00:26:48;5.57;;;1.75;;
72369;SDS011;60343;-32.030;115.880;2023-08-01T00:29:22;5.28;;;1.80;;
72369;SDS011;60343;-32.030;115.880;2023-08-01T00:31:57;3.35;;;1.20;;
72369;SDS011;60343;-32.030;115.880;2023-08-01T00:34:37;6.13;;;1.48;;
72369;SDS011;60343;-32.030;115.880;2023-08-01T00:37:12;2.90;;;1.20;;
72369;SDS011;60343;-32.030;115.880;2023-08-01T00:39:46;3.47;;;1.20;;
72369;SDS011;60343;-32.030;115.880;2023-08-01T00:42:21;4.28;;;1.17;;
72369;SDS011;60343;-32.030;115.880;2023-08-01T00:44:55;4.05;;;1.00;;
72369;SDS011;60343;-32.030;115.880;2023-08-01T00:47:31;3.45;;;0.90;;
72369;SDS011;60343;-32.030;115.880;2023-08-01T00:50:11;5.07;;;1.00;;
72369;SDS011;60343;-32.030;115.880;2023-08-01T00:52:46;1.58;;;0.60;;
72369;SDS011;60343;-32.030;115.880;2023-08-01T00:55:21;2.92;;;0.75;;
72369;SDS011;60343;-32.030;115.880;2023-08-01T00:57:56;2.97;;;0.80;;
72369;SDS011;60343;-32.030;115.880;2023-08-01T01:00:31;3.50;;;0.70;;
72369;SDS011;60343;-32.030;115.880;2023-08-01T01:03:05;2.72;;;0.60;;
72369;SDS011;60343;-32.030;115.880;2023-08-01T01:05:47;2.00;;;0.60;;
72369;SDS011;60343;-32.030;115.880;2023-08-01T01:08:26;3.10;;;0.60;;
72369;SDS011;60343;-32.030;115.880;2023-08-01T01:11:01;3.28;;;0.70;;
72369;SDS011;60343;-32.030;115.880;2023-08-01T01:13:36;2.92;;;0.80;;
72369;SDS011;60343;-32.030;115.880;2023-08-01T01:16:10;2.28;;;0.90;;
72369;SDS011;60343;-32.030;115.880;2023-08-01T01:18:45;3.35;;;0.70;;
72369;SDS011;60343;-32.030;115.880;2023-08-01T01:21:25;3.72;;;0.80;;
72369;SDS011;60343;-32.030;115.880;2023-08-01T01:24:00;2.42;;;0.70;;
72369;SDS011;60343;-32.030;115.880;2023-08-01T01:26:35;4.72;;;0.90;;
72369;SDS011;60343;-32.030;115.880;2023-08-01T01:29:10;3.78;;;1.17;;
72369;SDS011;60343;-32.030;115.880;2023-08-01T01:31:46;1.67;;;0.70;;
72369;SDS011;60343;-32.030;115.880;2023-08-01T01:34:21;4.03;;;0.70;;
72369;SDS011;60343;-32.030;115.880;2023-08-01T01:37:01;2.88;;;0.90;;
72369;SDS011;60343;-32.030;115.880;2023-08-01T01:39:36;3.50;;;0.80;;
72369;SDS011;60343;-32.030;115.880;2023-08-01T01:42:11;4.13;;;0.90;;
72369;SDS011;60343;-32.030;115.880;2023-08-01T01:44:45;5.00;;;0.85;;
72369;SDS011;60343;-32.030;115.880;2023-08-01T01:47:20;2.25;;;0.50;;
72369;SDS011;60343;-32.030;115.880;2023-08-01T01:49:55;1.90;;;0.60;;
72369;SDS011;60343;-32.030;115.880;2023-08-01T01:52:35;4.05;;;0.80;;
72369;SDS011;60343;-32.030;115.880;2023-08-01T01:55:09;1.80;;;0.65;;
72369;SDS011;60343;-32.030;115.880;2023-08-01T01:57:44;2.83;;;0.47;;
72369;SDS011;60343;-32.030;115.880;2023-08-01T02:00:18;2.88;;;0.60;;
72369;SDS011;60343;-32.030;115.880;2023-08-01T02:02:53;3.65;;;0.40;;
72369;SDS011;60343;-32.030;115.880;2023-08-01T02:05:29;3.33;;;0.68;;
72369;SDS011;60343;-32.030;115.880;2023-08-01T02:08:09;1.92;;;0.65;;
72369;SDS011;60343;-32.030;115.880;2023-08-01T02:10:43;1.42;;;0.50;;
72369;SDS011;60343;-32.030;115.880;2023-08-01T02:13:18;2.42;;;0.40;;
72369;SDS011;60343;-32.030;115.880;2023-08-01T02:15:52;1.58;;;0.55;;
72369;SDS011;60343;-32.030;115.880;2023-08-01T02:18:27;1.42;;;0.50;;
72369;SDS011;60343;-32.030;115.880;2023-08-01T02:21:01;1.33;;;0.30;;
72369;SDS011;60343;-32.030;115.880;2023-08-01T02:23:41;1.90;;;0.30;;
72369;SDS011;60343;-32.030;115.880;2023-08-01T02:26:16;0.73;;;0.30;;
72369;SDS011;60343;-32.030;115.880;2023-08-01T02:28:50;1.20;;;0.40;;
72369;SDS011;60343;-32.030;115.880;2023-08-01T02:31:25;1.58;;;0.40;;
72369;SDS011;60343;-32.030;115.880;2023-08-01T02:33:59;0.88;;;0.20;;
72369;SDS011;60343;-32.030;115.880;2023-08-01T02:36:34;1.75;;;0.38;;
72369;SDS011;60343;-32.030;115.880;2023-08-01T02:39:14;2.30;;;0.30;;
72369;SDS011;60343;-32.030;115.880;2023-08-01T02:41:48;1.33;;;0.50;;
72369;SDS011;60343;-32.030;115.880;2023-08-01T02:44:23;2.85;;;0.38;;
72369;SDS011;60343;-32.030;115.880;2023-08-01T02:46:57;0.93;;;0.30;;
72369;SDS011;60343;-32.030;115.880;2023-08-01T02:49:32;0.82;;;0.30;;
72369;SDS011;60343;-32.030;115.880;2023-08-01T02:52:07;2.17;;;0.50;;
72369;SDS011;60343;-32.030;115.880;2023-08-01T02:54:47;5.13;;;0.47;;
72369;SDS011;60343;-32.030;115.880;2023-08-01T02:57:21;3.08;;;0.30;;
72369;SDS011;60343;-32.030;115.880;2023-08-01T02:59:56;1.00;;;0.30;;
72369;SDS011;60343;-32.030;115.880;2023-08-01T03:02:32;0.88;;;0.40;;
72369;SDS011;60343;-32.030;115.880;2023-08-01T03:05:06;1.70;;;0.35;;
72369;SDS011;60343;-32.030;115.880;2023-08-01T03:07:42;0.55;;;0.17;;
72369;SDS011;60343;-32.030;115.880;2023-08-01T03:10:22;2.33;;;0.30;;
72369;SDS011;60343;-32.030;115.880;2023-08-01T03:12:57;2.33;;;0.40;;
72369;SDS011;60343;-32.030;115.880;2023-08-01T03:15:31;1.27;;;0.30;;
72369;SDS011;60343;-32.030;115.880;2023-08-01T03:18:06;1.83;;;0.40;;
72369;SDS011;60343;-32.030;115.880;2023-08-01T03:20:40;1.55;;;0.40;;
72369;SDS011;60343;-32.030;115.880;2023-08-01T03:23:15;1.92;;;0.35;;
72369;SDS011;60343;-32.030;115.880;2023-08-01T03:25:55;1.17;;;0.30;;
72369;SDS011;60343;-32.030;115.880;2023-08-01T03:28:29;2.60;;;0.50;;
72369;SDS011;60343;-32.030;115.880;2023-08-01T03:31:04;2.15;;;0.60;;
72369;SDS011;60343;-32.030;115.880;2023-08-01T03:33:38;1.15;;;0.25;;
72369;SDS011;60343;-32.030;115.880;2023-08-01T03:36:13;2.75;;;0.40;;
72369;SDS011;60343;-32.030;115.880;2023-08-01T03:38:47;3.03;;;0.50;;
72369;SDS011;60343;-32.030;115.880;2023-08-01T03:41:27;1.92;;;0.50;;
72369;SDS011;60343;-32.030;115.880;2023-08-01T03:44:02;4.28;;;0.50;;
72369;SDS011;60343;-32.030;115.880;2023-08-01T03:46:36;2.28;;;0.40;;
72369;SDS011;60343;-32.030;115.880;2023-08-01T03:49:12;2.40;;;0.40;;
72369;SDS011;60343;-32.030;115.880;2023-08-01T03:51:46;2.20;;;0.45;;
72369;SDS011;60343;-32.030;115.880;2023-08-01T03:54:20;2.55;;;0.40;;
72369;SDS011;60343;-32.030;115.880;2023-08-01T03:57:00;1.95;;;0.50;;
72369;SDS011;60343;-32.030;115.880;2023-08-01T03:59:35;1.58;;;0.50;;
72369;SDS011;60343;-32.030;115.880;2023-08-01T04:02:10;1.92;;;0.50;;
72369;SDS011;60343;-32.030;115.880;2023-08-01T04:04:44;1.85;;;0.40;;
72369;SDS011;60343;-32.030;115.880;2023-08-01T04:07:19;1.52;;;0.43;;
72369;SDS011;60343;-32.030;115.880;2023-08-01T04:09:54;2.90;;;0.77;;
72369;SDS011;60343;-32.030;115.880;2023-08-01T04:12:34;1.75;;;0.52;;
72369;SDS011;60343;-32.030;115.880;2023-08-01T04:15:08;1.70;;;0.43;;
72369;SDS011;60343;-32.030;115.880;2023-08-01T04:17:43;0.95;;;0.40;;
72369;SDS011;60343;-32.030;115.880;2023-08-01T04:20:18;2.75;;;0.57;;
72369;SDS011;60343;-32.030;115.880;2023-08-01T04:22:52;1.38;;;0.40;;
72369;SDS011;60343;-32.030;115.880;2023-08-01T04:25:27;1.58;;;0.50;;
72369;SDS011;60343;-32.030;115.880;2023-08-01T04:28:07;1.08;;;0.40;;
72369;SDS011;60343;-32.030;115.880;2023-08-01T04:30:41;2.25;;;0.43;;
72369;SDS011;60343;-32.030;115.880;2023-08-01T04:33:22;3.20;;;0.80;;
72369;SDS011;60343;-32.030;115.880;2023-08-01T04:35:56;1.85;;;0.75;;
72369;SDS011;60343;-32.030;115.880;2023-08-01T04:38:31;3.33;;;1.25;;
72369;SDS011;60343;-32.030;115.880;2023-08-01T04:41:05;6.63;;;2.33;;
72369;SDS011;60343;-32.030;115.880;2023-08-01T04:43:45;3.92;;;1.00;;
72369;SDS011;60343;-32.030;115.880;2023-08-01T04:46:20;2.97;;;1.05;;
72369;SDS011;60343;-32.030;115.880;2023-08-01T04:48:54;2.70;;;0.70;;
72369;SDS011;60343;-32.030;115.880;2023-08-01T04:51:29;1.10;;;0.43;;
72369;SDS011;60343;-32.030;115.880;2023-08-01T04:54:03;2.17;;;0.90;;
72369;SDS011;60343;-32.030;115.880;2023-08-01T04:56:38;0.95;;;0.30;;
72369;SDS011;60343;-32.030;115.880;2023-08-01T04:59:18;0.68;;;0.30;;
72369;SDS011;60343;-32.030;115.880;2023-08-01T05:01:52;1.67;;;0.20;;
72369;SDS011;60343;-32.030;115.880;2023-08-01T05:04:27;0.35;;;0.17;;
72369;SDS011;60343;-32.030;115.880;2023-08-01T05:07:01;0.68;;;0.20;;
72369;SDS011;60343;-32.030;115.880;2023-08-01T05:09:36;0.90;;;0.22;;
72369;SDS011;60343;-32.030;115.880;2023-08-01T05:12:11;1.08;;;0.20;;
72369;SDS011;60343;-32.030;115.880;2023-08-01T05:14:51;1.85;;;0.20;;
72369;SDS011;60343;-32.030;115.880;2023-08-01T05:17:26;0.80;;;0.10;;
72369;SDS011;60343;-32.030;115.880;2023-08-01T05:20:00;0.63;;;0.10;;
72369;SDS011;60343;-32.030;115.880;2023-08-01T05:22:35;0.80;;;0.00;;
72369;SDS011;60343;-32.030;115.880;2023-08-01T05:25:10;2.60;;;0.35;;
72369;SDS011;60343;-32.030;115.880;2023-08-01T05:27:45;1.65;;;0.20;;
72369;SDS011;60343;-32.030;115.880;2023-08-01T05:30:25;1.13;;;0.30;;
72369;SDS011;60343;-32.030;115.880;2023-08-01T05:32:59;1.35;;;0.20;;
72369;SDS011;60343;-32.030;115.880;2023-08-01T05:35:34;1.83;;;0.20;;
72369;SDS011;60343;-32.030;115.880;2023-08-01T05:38:08;1.42;;;0.20;;
72369;SDS011;60343;-32.030;115.880;2023-08-01T05:40:43;1.38;;;0.30;;
72369;SDS011;60343;-32.030;115.880;2023-08-01T05:43:17;1.85;;;0.30;;
72369;SDS011;60343;-32.030;115.880;2023-08-01T05:45:57;1.67;;;0.20;;
72369;SDS011;60343;-32.030;115.880;2023-08-01T05:48:32;1.15;;;0.20;;
72369;SDS011;60343;-32.030;115.880;2023-08-01T05:51:06;2.03;;;0.35;;
72369;SDS011;60343;-32.030;115.880;2023-08-01T05:53:41;0.25;;;0.10;;
72369;SDS011;60343;-32.030;115.880;2023-08-01T05:56:15;0.73;;;0.30;;
72369;SDS011;60343;-32.030;115.880;2023-08-01T05:58:50;0.35;;;0.10;;
72369;SDS011;60343;-32.030;115.880;2023-08-01T06:01:30;1.55;;;0.20;;
72369;SDS011;60343;-32.030;115.880;2023-08-01T06:04:04;0.73;;;0.17;;
72369;SDS011;60343;-32.030;115.880;2023-08-01T06:06:39;0.88;;;0.20;;
72369;SDS011;60343;-32.030;115.880;2023-08-01T06:09:14;0.85;;;0.20;;
72369;SDS011;60343;-32.030;115.880;2023-08-01T06:11:48;0.70;;;0.20;;
72369;SDS011;60343;-32.030;115.880;2023-08-01T06:14:23;0.93;;;0.20;;
72369;SDS011;60343;-32.030;115.880;2023-08-01T06:17:03;0.75;;;0.20;;
72369;SDS011;60343;-32.030;115.880;2023-08-01T06:19:38;1.30;;;0.20;;
72369;SDS011;60343;-32.030;115.880;2023-08-01T06:22:13;0.45;;;0.08;;
72369;SDS011;60343;-32.030;115.880;2023-08-01T06:24:48;0.82;;;0.22;;
72369;SDS011;60343;-32.030;115.880;2023-08-01T06:27:22;1.27;;;0.30;;
72369;SDS011;60343;-32.030;115.880;2023-08-01T06:29:57;1.27;;;0.30;;
72369;SDS011;60343;-32.030;115.880;2023-08-01T06:32:37;0.43;;;0.15;;
72369;SDS011;60343;-32.030;115.880;2023-08-01T06:35:12;2.17;;;0.30;;
72369;SDS011;60343;-32.030;115.880;2023-08-01T06:37:47;1.63;;;0.20;;
72369;SDS011;60343;-32.030;115.880;2023-08-01T06:40:21;1.45;;;0.20;;
72369;SDS011;60343;-32.030;115.880;2023-08-01T06:42:56;0.47;;;0.17;;
72369;SDS011;60343;-32.030;115.880;2023-08-01T06:45:30;2.35;;;0.20;;
72369;SDS011;60343;-32.030;115.880;2023-08-01T06:48:10;2.55;;;0.10;;
72369;SDS011;60343;-32.030;115.880;2023-08-01T06:50:45;1.70;;;0.20;;
72369;SDS011;60343;-32.030;115.880;2023-08-01T06:53:19;3.10;;;0.20;;
72369;SDS011;60343;-32.030;115.880;2023-08-01T06:55:54;2.85;;;0.25;;
72369;SDS011;60343;-32.030;115.880;2023-08-01T06:58:28;1.92;;;0.50;;
72369;SDS011;60343;-32.030;115.880;2023-08-01T07:01:03;2.47;;;0.32;;
72369;SDS011;60343;-32.030;115.880;2023-08-01T07:03:43;1.83;;;0.25;;
72369;SDS011;60343;-32.030;115.880;2023-08-01T07:06:18;0.93;;;0.20;;
72369;SDS011;60343;-32.030;115.880;2023-08-01T07:08:52;2.75;;;0.30;;
72369;SDS011;60343;-32.030;115.880;2023-08-01T07:11:27;2.25;;;0.20;;
72369;SDS011;60343;-32.030;115.880;2023-08-01T07:14:01;3.88;;;0.20;;
72369;SDS011;60343;-32.030;115.880;2023-08-01T07:16:36;1.90;;;0.25;;
72369;SDS011;60343;-32.030;115.880;2023-08-01T07:19:16;1.30;;;0.20;;
72369;SDS011;60343;-32.030;115.880;2023-08-01T07:21:50;2.00;;;0.38;;
72369;SDS011;60343;-32.030;115.880;2023-08-01T07:24:25;0.68;;;0.10;;
72369;SDS011;60343;-32.030;115.880;2023-08-01T07:26:59;0.82;;;0.25;;
72369;SDS011;60343;-32.030;115.880;2023-08-01T07:29:34;4.78;;;0.30;;
72369;SDS011;60343;-32.030;115.880;2023-08-01T07:32:08;2.08;;;0.20;;
72369;SDS011;60343;-32.030;115.880;2023-08-01T07:34:48;1.65;;;0.20;;
72369;SDS011;60343;-32.030;115.880;2023-08-01T07:37:23;1.63;;;0.20;;
72369;SDS011;60343;-32.030;115.880;2023-08-01T07:39:57;0.95;;;0.20;;
72369;SDS011;60343;-32.030;115.880;2023-08-01T07:42:32;0.90;;;0.20;;
72369;SDS011;60343;-32.030;115.880;2023-08-01T07:45:06;1.05;;;0.10;;
72369;SDS011;60343;-32.030;115.880;2023-08-01T07:47:41;2.13;;;0.20;;
72369;SDS011;60343;-32.030;115.880;2023-08-01T07:50:21;0.43;;;0.10;;
72369;SDS011;60343;-32.030;115.880;2023-08-01T07:52:56;0.63;;;0.10;;
72369;SDS011;60343;-32.030;115.880;2023-08-01T07:55:33;0.55;;;0.10;;
72369;SDS011;60343;-32.030;115.880;2023-08-01T07:58:08;2.85;;;0.40;;
72369;SDS011;60343;-32.030;115.880;2023-08-01T08:00:42;1.45;;;0.20;;
72369;SDS011;60343;-32.030;115.880;2023-08-01T08:03:17;4.68;;;0.20;;
72369;SDS011;60343;-32.030;115.880;2023-08-01T08:05:57;1.55;;;0.20;;
72369;SDS011;60343;-32.030;115.880;2023-08-01T08:08:32;1.10;;;0.20;;
72369;SDS011;60343;-32.030;115.880;2023-08-01T08:11:06;1.55;;;0.38;;
72369;SDS011;60343;-32.030;115.880;2023-08-01T08:13:42;1.13;;;0.20;;
72369;SDS011;60343;-32.030;115.880;2023-08-01T08:16:16;3.00;;;0.20;;
72369;SDS011;60343;-32.030;115.880;2023-08-01T08:18:51;2.55;;;0.22;;
72369;SDS011;60343;-32.030;115.880;2023-08-01T08:21:31;3.72;;;0.13;;
72369;SDS011;60343;-32.030;115.880;2023-08-01T08:24:05;4.53;;;0.30;;
72369;SDS011;60343;-32.030;115.880;2023-08-01T08:26:40;2.58;;;0.25;;
72369;SDS011;60343;-32.030;115.880;2023-08-01T08:29:14;2.53;;;0.20;;
72369;SDS011;60343;-32.030;115.880;2023-08-01T08:31:49;2.75;;;0.35;;
72369;SDS011;60343;-32.030;115.880;2023-08-01T08:34:24;3.85;;;0.40;;
72369;SDS011;60343;-32.030;115.880;2023-08-01T08:37:05;1.88;;;0.20;;
72369;SDS011;60343;-32.030;115.880;2023-08-01T08:39:39;3.58;;;0.22;;
72369;SDS011;60343;-32.030;115.880;2023-08-01T08:42:12;1.80;;;0.20;;
72369;SDS011;60343;-32.030;115.880;2023-08-01T08:44:51;1.05;;;0.08;;
72369;SDS011;60343;-32.030;115.880;2023-08-01T08:47:28;4.20;;;0.30;;
72369;SDS011;60343;-32.030;115.880;2023-08-01T08:50:08;4.53;;;0.30;;
72369;SDS011;60343;-32.030;115.880;2023-08-01T08:52:49;4.85;;;0.50;;
72369;SDS011;60343;-32.030;115.880;2023-08-01T08:55:25;2.97;;;0.30;;
72369;SDS011;60343;-32.030;115.880;2023-08-01T08:58:00;2.33;;;0.20;;
72369;SDS011;60343;-32.030;115.880;2023-08-01T09:00:35;2.60;;;0.20;;
72369;SDS011;60343;-32.030;115.880;2023-08-01T09:03:09;1.15;;;0.20;;
72369;SDS011;60343;-32.030;115.880;2023-08-01T09:05:45;3.30;;;0.32;;
72369;SDS011;60343;-32.030;115.880;2023-08-01T09:08:28;3.22;;;0.40;;
72369;SDS011;60343;-32.030;115.880;2023-08-01T09:11:05;2.42;;;0.30;;
72369;SDS011;60343;-32.030;115.880;2023-08-01T09:13:40;2.60;;;0.30;;
72369;SDS011;60343;-32.030;115.880;2023-08-01T09:16:14;6.30;;;0.35;;
72369;SDS011;60343;-32.030;115.880;2023-08-01T09:18:50;2.72;;;0.30;;
72369;SDS011;60343;-32.030;115.880;2023-08-01T09:21:25;5.30;;;0.40;;
72369;SDS011;60343;-32.030;115.880;2023-08-01T09:24:13;7.22;;;0.82;;
72369;SDS011;60343;-32.030;115.880;2023-08-01T09:26:48;4.78;;;0.40;;
72369;SDS011;60343;-32.030;115.880;2023-08-01T09:29:23;7.10;;;0.50;;
72369;SDS011;60343;-32.030;115.880;2023-08-01T09:31:58;6.68;;;0.32;;
72369;SDS011;60343;-32.030;115.880;2023-08-01T09:34:33;2.22;;;0.30;;
72369;SDS011;60343;-32.030;115.880;2023-08-01T09:37:07;5.15;;;0.40;;
72369;SDS011;60343;-32.030;115.880;2023-08-01T09:39:52;4.53;;;0.45;;
72369;SDS011;60343;-32.030;115.880;2023-08-01T09:42:27;2.83;;;0.40;;
72369;SDS011;60343;-32.030;115.880;2023-08-01T09:45:14;4.07;;;0.30;;
72369;SDS011;60343;-32.030;115.880;2023-08-01T09:47:49;5.00;;;0.40;;
72369;SDS011;60343;-32.030;115.880;2023-08-01T09:50:24;4.60;;;0.85;;
72369;SDS011;60343;-32.030;115.880;2023-08-01T09:53:07;4.85;;;0.32;;
72369;SDS011;60343;-32.030;115.880;2023-08-01T09:55:47;3.50;;;0.30;;
72369;SDS011;60343;-32.030;115.880;2023-08-01T09:58:24;4.97;;;0.40;;
72369;SDS011;60343;-32.030;115.880;2023-08-01T10:01:04;5.78;;;0.55;;
72369;SDS011;60343;-32.030;115.880;2023-08-01T10:03:39;5.00;;;0.50;;
72369;SDS011;60343;-32.030;115.880;2023-08-01T10:06:17;3.63;;;0.40;;
72369;SDS011;60343;-32.030;115.880;2023-08-01T10:08:53;4.28;;;0.47;;
72369;SDS011;60343;-32.030;115.880;2023-08-01T10:11:33;6.60;;;0.60;;
72369;SDS011;60343;-32.030;115.880;2023-08-01T10:14:08;4.38;;;0.50;;
72369;SDS011;60343;-32.030;115.880;2023-08-01T10:16:43;3.95;;;0.50;;
72369;SDS011;60343;-32.030;115.880;2023-08-01T10:19:18;5.32;;;0.68;;
72369;SDS011;60343;-32.030;115.880;2023-08-01T10:21:54;7.95;;;0.70;;
72369;SDS011;60343;-32.030;115.880;2023-08-01T10:24:29;3.30;;;0.47;;
72369;SDS011;60343;-32.030;115.880;2023-08-01T10:27:19;4.13;;;0.60;;
72369;SDS011;60343;-32.030;115.880;2023-08-01T10:29:57;5.20;;;0.47;;
72369;SDS011;60343;-32.030;115.880;2023-08-01T10:32:34;2.55;;;0.32;;
72369;SDS011;60343;-32.030;115.880;2023-08-01T10:35:10;5.80;;;0.68;;
72369;SDS011;60343;-32.030;115.880;2023-08-01T10:37:45;6.88;;;1.20;;
72369;SDS011;60343;-32.030;115.880;2023-08-01T10:40:37;5.45;;;0.70;;
72369;SDS011;60343;-32.030;115.880;2023-08-01T10:43:26;6.85;;;0.98;;
72369;SDS011;60343;-32.030;115.880;2023-08-01T10:46:09;3.42;;;0.45;;
72369;SDS011;60343;-32.030;115.880;2023-08-01T10:48:50;3.85;;;0.65;;
72369;SDS011;60343;-32.030;115.880;2023-08-01T10:51:28;3.30;;;0.40;;
72369;SDS011;60343;-32.030;115.880;2023-08-01T10:57:15;4.93;;;0.52;;
72369;SDS011;60343;-32.030;115.880;2023-08-01T10:59:56;5.20;;;0.60;;
72369;SDS011;60343;-32.030;115.880;2023-08-01T11:02:35;5.15;;;0.60;;
72369;SDS011;60343;-32.030;115.880;2023-08-01T11:05:10;6.65;;;0.93;;
72369;SDS011;60343;-32.030;115.880;2023-08-01T11:07:53;3.13;;;0.60;;
72369;SDS011;60343;-32.030;115.880;2023-08-01T11:10:28;5.15;;;0.80;;
72369;SDS011;60343;-32.030;115.880;2023-08-01T11:13:04;5.45;;;0.98;;
72369;SDS011;60343;-32.030;115.880;2023-08-01T11:15:44;5.72;;;0.80;;
72369;SDS011;60343;-32.030;115.880;2023-08-01T11:18:22;6.70;;;0.60;;
72369;SDS011;60343;-32.030;115.880;2023-08-01T11:20:56;4.60;;;0.50;;
72369;SDS011;60343;-32.030;115.880;2023-08-01T11:23:31;5.18;;;0.43;;
72369;SDS011;60343;-32.030;115.880;2023-08-01T11:26:07;5.35;;;1.00;;
72369;SDS011;60343;-32.030;115.880;2023-08-01T11:28:42;2.40;;;0.50;;
72369;SDS011;60343;-32.030;115.880;2023-08-01T11:31:22;5.95;;;0.57;;
72369;SDS011;60343;-32.030;115.880;2023-08-01T11:33:57;4.78;;;0.65;;
72369;SDS011;60343;-32.030;115.880;2023-08-01T11:36:32;3.85;;;0.60;;
72369;SDS011;60343;-32.030;115.880;2023-08-01T11:39:06;5.03;;;0.77;;
72369;SDS011;60343;-32.030;115.880;2023-08-01T11:41:41;4.63;;;0.60;;
72369;SDS011;60343;-32.030;115.880;2023-08-01T11:44:16;6.93;;;0.95;;
72369;SDS011;60343;-32.030;115.880;2023-08-01T11:46:56;3.50;;;0.60;;
72369;SDS011;60343;-32.030;115.880;2023-08-01T11:49:31;5.28;;;1.00;;
72369;SDS011;60343;-32.030;115.880;2023-08-01T11:52:06;3.75;;;0.57;;
72369;SDS011;60343;-32.030;115.880;2023-08-01T11:54:44;4.97;;;0.82;;
72369;SDS011;60343;-32.030;115.880;2023-08-01T11:57:19;4.28;;;0.77;;
72369;SDS011;60343;-32.030;115.880;2023-08-01T11:59:53;7.60;;;0.93;;
72369;SDS011;60343;-32.030;115.880;2023-08-01T12:02:34;6.03;;;0.70;;
72369;SDS011;60343;-32.030;115.880;2023-08-01T12:05:09;4.47;;;0.93;;
72369;SDS011;60343;-32.030;115.880;2023-08-01T12:07:43;7.22;;;1.15;;
72369;SDS011;60343;-32.030;115.880;2023-08-01T12:10:18;2.95;;;0.77;;
72369;SDS011;60343;-32.030;115.880;2023-08-01T12:15:29;6.60;;;1.15;;
72369;SDS011;60343;-32.030;115.880;2023-08-01T12:18:09;4.97;;;1.23;;
72369;SDS011;60343;-32.030;115.880;2023-08-01T12:20:52;7.15;;;1.60;;
72369;SDS011;60343;-32.030;115.880;2023-08-01T12:23:26;5.15;;;1.50;;
72369;SDS011;60343;-32.030;115.880;2023-08-01T12:26:01;4.85;;;1.52;;
72369;SDS011;60343;-32.030;115.880;2023-08-01T12:28:35;8.02;;;1.83;;
72369;SDS011;60343;-32.030;115.880;2023-08-01T12:31:10;9.70;;;2.13;;
72369;SDS011;60343;-32.030;115.880;2023-08-01T12:33:53;7.88;;;1.63;;
72369;SDS011;60343;-32.030;115.880;2023-08-01T12:36:28;8.02;;;1.52;;
72369;SDS011;60343;-32.030;115.880;2023-08-01T12:39:03;4.97;;;1.42;;
72369;SDS011;60343;-32.030;115.880;2023-08-01T12:41:37;4.70;;;1.20;;
72369;SDS011;60343;-32.030;115.880;2023-08-01T12:44:12;3.15;;;1.00;;
72369;SDS011;60343;-32.030;115.880;2023-08-01T12:46:47;7.45;;;1.38;;
72369;SDS011;60343;-32.030;115.880;2023-08-01T12:49:27;4.40;;;1.30;;
72369;SDS011;60343;-32.030;115.880;2023-08-01T12:52:02;5.63;;;1.48;;
72369;SDS011;60343;-32.030;115.880;2023-08-01T12:54:37;5.68;;;1.10;;
72369;SDS011;60343;-32.030;115.880;2023-08-01T12:57:11;8.02;;;1.52;;
72369;SDS011;60343;-32.030;115.880;2023-08-01T12:59:46;6.15;;;1.50;;
72369;SDS011;60343;-32.030;115.880;2023-08-01T13:02:21;3.95;;;1.00;;
72369;SDS011;60343;-32.030;115.880;2023-08-01T13:05:01;5.90;;;1.52;;
72369;SDS011;60343;-32.030;115.880;2023-08-01T13:07:35;5.15;;;1.20;;
72369;SDS011;60343;-32.030;115.880;2023-08-01T13:10:11;3.67;;;1.08;;
72369;SDS011;60343;-32.030;115.880;2023-08-01T13:12:45;4.38;;;1.40;;
72369;SDS011;60343;-32.030;115.880;2023-08-01T13:15:20;5.07;;;1.30;;
72369;SDS011;60343;-32.030;115.880;2023-08-01T13:17:54;6.53;;;1.30;;
72369;SDS011;60343;-32.030;115.880;2023-08-01T13:20:34;3.88;;;1.05;;
72369;SDS011;60343;-32.030;115.880;2023-08-01T13:23:08;3.72;;;1.30;;
72369;SDS011;60343;-32.030;115.880;2023-08-01T13:25:46;4.00;;;1.08;;
72369;SDS011;60343;-32.030;115.880;2023-08-01T13:28:22;5.75;;;1.30;;
72369;SDS011;60343;-32.030;115.880;2023-08-01T13:30:56;4.65;;;1.30;;
72369;SDS011;60343;-32.030;115.880;2023-08-01T13:33:30;6.05;;;1.08;;
72369;SDS011;60343;-32.030;115.880;2023-08-01T13:36:11;4.53;;;1.10;;
72369;SDS011;60343;-32.030;115.880;2023-08-01T13:38:45;2.92;;;1.00;;
72369;SDS011;60343;-32.030;115.880;2023-08-01T13:41:20;3.58;;;0.95;;
72369;SDS011;60343;-32.030;115.880;2023-08-01T13:43:55;4.60;;;1.30;;
72369;SDS011;60343;-32.030;115.880;2023-08-01T13:46:29;5.43;;;1.20;;
72369;SDS011;60343;-32.030;115.880;2023-08-01T13:49:04;5.30;;;1.27;;
72369;SDS011;60343;-32.030;115.880;2023-08-01T13:51:44;5.57;;;1.10;;
72369;SDS011;60343;-32.030;115.880;2023-08-01T13:54:19;3.65;;;1.15;;
72369;SDS011;60343;-32.030;115.880;2023-08-01T13:56:53;3.97;;;1.30;;
72369;SDS011;60343;-32.030;115.880;2023-08-01T13:59:28;5.28;;;1.80;;
72369;SDS011;60343;-32.030;115.880;2023-08-01T14:02:02;4.40;;;1.20;;
72369;SDS011;60343;-32.030;115.880;2023-08-01T14:04:37;4.47;;;1.67;;
72369;SDS011;60343;-32.030;115.880;2023-08-01T14:07:17;5.40;;;1.58;;
72369;SDS011;60343;-32.030;115.880;2023-08-01T14:09:52;3.80;;;1.30;;
72369;SDS011;60343;-32.030;115.880;2023-08-01T14:12:26;4.60;;;1.08;;
72369;SDS011;60343;-32.030;115.880;2023-08-01T14:15:01;5.05;;;1.45;;
72369;SDS011;60343;-32.030;115.880;2023-08-01T14:17:36;3.95;;;1.40;;
72369;SDS011;60343;-32.030;115.880;2023-08-01T14:20:12;5.18;;;1.42;;
72369;SDS011;60343;-32.030;115.880;2023-08-01T14:22:52;3.78;;;1.45;;
72369;SDS011;60343;-32.030;115.880;2023-08-01T14:25:26;5.50;;;1.23;;
72369;SDS011;60343;-32.030;115.880;2023-08-01T14:28:01;3.78;;;1.10;;
72369;SDS011;60343;-32.030;115.880;2023-08-01T14:30:37;4.32;;;1.50;;
72369;SDS011;60343;-32.030;115.880;2023-08-01T14:33:12;3.42;;;1.20;;
72369;SDS011;60343;-32.030;115.880;2023-08-01T14:35:49;4.97;;;1.30;;
72369;SDS011;60343;-32.030;115.880;2023-08-01T14:38:30;5.43;;;1.20;;
72369;SDS011;60343;-32.030;115.880;2023-08-01T14:41:05;4.63;;;1.08;;
72369;SDS011;60343;-32.030;115.880;2023-08-01T14:43:41;4.90;;;1.20;;
72369;SDS011;60343;-32.030;115.880;2023-08-01T14:46:15;3.58;;;0.95;;
72369;SDS011;60343;-32.030;115.880;2023-08-01T14:48:50;5.18;;;1.08;;
72369;SDS011;60343;-32.030;115.880;2023-08-01T14:51:24;3.53;;;0.90;;
72369;SDS011;60343;-32.030;115.880;2023-08-01T14:54:05;2.75;;;0.90;;
72369;SDS011;60343;-32.030;115.880;2023-08-01T14:56:39;2.17;;;0.80;;
72369;SDS011;60343;-32.030;115.880;2023-08-01T14:59:13;4.03;;;1.05;;
72369;SDS011;60343;-32.030;115.880;2023-08-01T15:01:48;3.13;;;1.02;;
72369;SDS011;60343;-32.030;115.880;2023-08-01T15:04:22;3.28;;;0.88;;